Time;durP1;ratioP1;P1;durP2;ratioP2;P2;SDS_P1;SDS_P2;PMS_P1;PMS_P2;Temp;Humidity;BMP_temperature;BMP_pressure;BME280_temperature;BME280_humidity;BME280_pressure;Samples;Min_cycle;Max_cycle;Signal;HPM_P1;HPM_P2
2022/08/04 00:00:22;;;;;;;0.10;0.10;;;22.10;78.50;;;;;;5054649;28;20021;-75
2022/08/04 00:03:08;;;;;;;0.10;0.10;;;22.00;78.70;;;;;;5054535;28;20052;-75
2022/08/04 00:05:46;;;;;;;0.20;0.20;;;21.80;78.90;;;;;;5071046;28;20031;-74
2022/08/04 00:08:45;;;;;;;0.25;0.25;;;21.60;79.50;;;;;;5071112;28;20039;-75
2022/08/04 00:11:18;;;;;;;3.65;0.68;;;21.60;79.60;;;;;;5053924;28;20059;-75
2022/08/04 00:13:52;;;;;;;0.10;0.10;;;21.60;79.70;;;;;;5072503;28;20046;-75
2022/08/04 00:16:19;;;;;;;0.30;0.30;;;21.50;80.10;;;;;;5070868;28;20032;-75
2022/08/04 00:18:52;;;;;;;0.00;0.00;;;21.40;80.20;;;;;;5072269;28;20035;-75
2022/08/04 00:21:21;;;;;;;0.10;0.10;;;21.50;80.30;;;;;;5070958;28;20028;-75
2022/08/04 00:23:48;;;;;;;0.10;0.10;;;21.60;79.30;;;;;;5072156;28;20103;-75
2022/08/04 00:26:15;;;;;;;0.10;0.10;;;21.80;78.90;;;;;;5070846;28;20483;-75
2022/08/04 00:28:42;;;;;;;0.00;0.00;;;22.10;77.90;;;;;;5072183;28;20079;-75
2022/08/04 00:31:10;;;;;;;0.10;0.10;;;22.30;77.10;;;;;;5070934;28;20074;-75
2022/08/04 00:33:42;;;;;;;0.10;0.10;;;22.30;76.90;;;;;;5072619;28;20028;-75
2022/08/04 00:36:10;;;;;;;0.10;0.10;;;22.20;77.50;;;;;;5053809;28;20052;-75
2022/08/04 00:38:36;;;;;;;0.00;0.00;;;22.30;76.70;;;;;;5070733;28;20078;-75
2022/08/04 00:41:05;;;;;;;0.00;0.00;;;22.30;76.40;;;;;;5071970;28;20021;-75
2022/08/04 00:43:33;;;;;;;0.03;0.03;;;22.40;76.10;;;;;;5054095;28;20468;-75
2022/08/04 00:46:14;;;;;;;0.00;0.00;;;22.40;76.40;;;;;;5070441;28;20024;-74
2022/08/04 00:49:07;;;;;;;0.10;0.10;;;22.00;77.30;;;;;;5070506;28;20021;-75
2022/08/04 00:51:39;;;;;;;0.00;0.00;;;22.10;77.50;;;;;;5070787;28;20032;-74
2022/08/04 00:54:26;;;;;;;0.00;0.00;;;22.00;77.50;;;;;;5070621;28;20115;-75
2022/08/04 00:57:16;;;;;;;0.10;0.10;;;21.80;78.00;;;;;;5071693;28;20103;-75
2022/08/04 01:00:02;;;;;;;0.20;0.20;;;21.70;78.70;;;;;;5053946;28;20032;-74
2022/08/04 01:02:38;;;;;;;0.00;0.00;;;21.50;79.10;;;;;;5070643;28;20476;-75
2022/08/04 01:05:18;;;;;;;0.00;0.00;;;21.70;79.10;;;;;;5070510;28;20071;-75
2022/08/04 01:08:08;;;;;;;0.10;0.10;;;21.60;79.30;;;;;;5070334;28;20499;-75
2022/08/04 01:10:55;;;;;;;0.10;0.10;;;21.50;79.40;;;;;;5071852;28;20031;-75
2022/08/04 01:13:28;;;;;;;0.08;0.08;;;21.60;79.90;;;;;;5070592;28;20143;-74
2022/08/04 01:16:10;;;;;;;0.20;0.20;;;21.30;80.80;;;;;;5069978;28;20066;-75
2022/08/04 01:18:56;;;;;;;0.03;0.03;;;21.20;81.00;;;;;;5070346;28;20028;-75
2022/08/04 01:21:28;;;;;;;0.00;0.00;;;21.10;81.70;;;;;;5054312;28;20025;-75
2022/08/04 01:24:00;;;;;;;;;;;21.30;81.60;;;;;;5075915;28;20486;-75
2022/08/04 01:26:42;;;;;;;0.10;0.10;;;21.40;81.00;;;;;;5075034;28;19908;-74
2022/08/04 01:29:10;;;;;;;0.00;0.00;;;21.50;80.60;;;;;;5074004;28;20036;-74
2022/08/04 01:32:01;;;;;;;0.10;0.10;;;21.30;81.50;;;;;;5057235;28;20199;-75
2022/08/04 01:34:41;;;;;;;0.10;0.10;;;21.00;82.10;;;;;;5064531;28;20063;-75
2022/08/04 01:37:49;;;;;;;0.00;0.00;;;20.90;83.10;;;;;;5073797;28;20025;-75
2022/08/04 01:40:15;;;;;;;0.10;0.10;;;21.10;82.60;;;;;;5066608;28;20091;-75
2022/08/04 01:42:44;;;;;;;0.10;0.10;;;21.20;81.90;;;;;;5075010;28;20039;-75
2022/08/04 01:45:12;;;;;;;0.10;0.10;;;21.50;80.90;;;;;;5075169;28;20024;-75
2022/08/04 01:47:48;;;;;;;0.00;0.00;;;21.60;80.10;;;;;;5073492;28;20396;-75
2022/08/04 01:50:13;;;;;;;0.55;0.55;;;21.60;80.20;;;;;;5075120;28;20022;-75
2022/08/04 01:52:43;;;;;;;0.10;0.10;;;21.50;80.40;;;;;;5078150;28;20020;-75
2022/08/04 01:55:11;;;;;;;0.10;0.10;;;21.30;81.60;;;;;;5094624;28;20146;-75
2022/08/04 01:57:44;;;;;;;0.10;0.10;;;21.20;82.20;;;;;;5089631;28;20117;-74
2022/08/04 02:00:14;;;;;;;0.10;0.10;;;21.20;82.40;;;;;;5073466;28;20098;-75
2022/08/04 02:02:40;;;;;;;0.00;0.00;;;21.40;82.50;;;;;;5074683;28;20062;-75
2022/08/04 02:05:16;;;;;;;0.08;0.08;;;21.60;81.90;;;;;;5073571;28;20103;-75
2022/08/04 02:08:03;;;;;;;0.10;0.10;;;21.70;81.40;;;;;;5074298;28;20027;-74
2022/08/04 02:10:32;;;;;;;0.00;0.00;;;21.70;81.40;;;;;;5093795;28;20038;-75
2022/08/04 02:13:25;;;;;;;0.00;0.00;;;21.50;81.60;;;;;;5093501;28;20017;-75
2022/08/04 02:16:02;;;;;;;0.10;0.10;;;21.40;82.20;;;;;;5076454;28;20028;-75
2022/08/04 02:18:55;;;;;;;0.43;0.43;;;21.30;82.70;;;;;;5093202;28;20122;-75
2022/08/04 02:21:24;;;;;;;0.10;0.10;;;21.30;83.00;;;;;;5094788;28;20016;-75
2022/08/04 02:23:56;;;;;;;0.00;0.00;;;21.20;83.30;;;;;;5082883;28;20498;-75
2022/08/04 02:26:27;;;;;;;0.32;0.30;;;21.10;83.60;;;;;;5072710;28;20507;-75
2022/08/04 02:29:12;;;;;;;0.05;0.05;;;21.20;83.80;;;;;;5074047;28;20483;-75
2022/08/04 02:31:56;;;;;;;0.20;0.20;;;21.30;84.00;;;;;;5073973;28;20025;-75
2022/08/04 02:34:46;;;;;;;0.10;0.10;;;21.30;83.60;;;;;;5072732;28;20020;-74
2022/08/04 02:37:16;;;;;;;0.00;0.00;;;21.10;84.20;;;;;;5073617;28;20025;-75
2022/08/04 02:39:43;;;;;;;0.00;0.00;;;21.20;84.40;;;;;;5055946;28;20055;-75
2022/08/04 02:42:11;;;;;;;0.00;0.00;;;21.10;84.60;;;;;;5072483;28;20024;-74
2022/08/04 02:44:38;;;;;;;0.10;0.10;;;21.30;84.10;;;;;;5072193;28;20024;-74
2022/08/04 02:47:05;;;;;;;0.10;0.10;;;21.20;83.80;;;;;;5073331;28;20103;-75
2022/08/04 02:49:35;;;;;;;0.10;0.10;;;21.50;83.90;;;;;;5055685;28;20078;-75
2022/08/04 02:52:03;;;;;;;0.10;0.10;;;21.40;83.90;;;;;;5073815;28;20024;-75
2022/08/04 02:54:37;;;;;;;0.10;0.10;;;21.40;83.70;;;;;;5073625;28;20028;-75
2022/08/04 02:57:08;;;;;;;0.10;0.10;;;21.20;84.30;;;;;;5074848;28;20020;-75
2022/08/04 02:59:55;;;;;;;0.10;0.10;;;21.20;84.40;;;;;;5092513;28;20507;-75
2022/08/04 03:02:50;;;;;;;0.10;0.10;;;21.10;84.80;;;;;;5074887;28;20072;-75
2022/08/04 03:05:24;;;;;;;0.00;0.00;;;21.00;85.10;;;;;;5018541;28;20044;-75
2022/08/04 03:08:11;;;;;;;0.38;0.38;;;20.70;86.00;;;;;;5071770;28;20499;-75
2022/08/04 03:11:09;;;;;;;0.52;0.30;;;20.60;86.80;;;;;;5073283;28;20472;-75
2022/08/04 03:14:12;;;;;;;0.38;0.38;;;20.60;87.00;;;;;;5072102;28;20028;-75
2022/08/04 03:17:03;;;;;;;1.23;0.43;;;20.50;87.30;;;;;;5072927;28;20040;-74
2022/08/04 03:19:38;;;;;;;0.15;0.15;;;20.30;88.20;;;;;;5034107;28;20044;-74
2022/08/04 03:22:27;;;;;;;2.38;1.48;;;20.30;88.60;;;;;;5071737;28;20040;-74
2022/08/04 03:25:37;;;;;;;0.20;0.20;;;20.20;89.50;;;;;;5071803;28;20028;-74
2022/08/04 03:28:28;;;;;;;0.20;0.10;;;20.10;90.20;;;;;;5055026;28;20032;-75
2022/08/04 03:31:12;;;;;;;0.28;0.28;;;20.00;90.40;;;;;;5048664;28;20480;-74
2022/08/04 03:34:03;;;;;;;3.50;3.03;;;20.10;90.50;;;;;;5073019;28;20071;-75
2022/08/04 03:37:01;;;;;;;0.55;0.55;;;20.20;90.60;;;;;;5072925;28;20028;-75
2022/08/04 03:40:04;;;;;;;0.32;0.32;;;20.20;90.60;;;;;;5055139;28;20204;-74
2022/08/04 03:43:00;;;;;;;1.30;1.20;;;20.30;90.70;;;;;;5071657;28;20037;-75
2022/08/04 03:46:11;;;;;;;1.27;1.00;;;20.30;90.70;;;;;;5070543;28;20036;-75
2022/08/04 03:49:17;;;;;;;0.10;0.10;;;20.30;90.80;;;;;;5072592;28;20028;-75
2022/08/04 03:54:59;;;;;;;0.40;0.40;;;20.60;90.70;;;;;;5030374;28;20402;-74
2022/08/04 03:57:31;;;;;;;0.10;0.10;;;20.60;90.60;;;;;;5072303;28;20020;-75
2022/08/04 04:00:08;;;;;;;0.90;0.45;;;20.60;90.50;;;;;;5054206;28;20020;-75
2022/08/04 04:03:01;;;;;;;0.17;0.17;;;20.60;90.70;;;;;;5071075;28;20427;-75
2022/08/04 04:05:35;;;;;;;3.20;0.38;;;20.60;90.50;;;;;;5072059;28;20024;-74
2022/08/04 04:08:11;;;;;;;0.30;0.30;;;20.60;90.50;;;;;;5070735;28;20028;-75
2022/08/04 04:11:07;;;;;;;0.88;0.60;;;20.60;90.40;;;;;;5070873;28;20365;-75
2022/08/04 04:13:36;;;;;;;0.00;0.00;;;20.50;90.70;;;;;;5070982;28;20361;-75
2022/08/04 04:16:11;;;;;;;0.10;0.10;;;20.40;90.90;;;;;;5070700;28;20090;-75
2022/08/04 04:19:05;;;;;;;0.10;0.10;;;20.30;91.20;;;;;;5070734;28;20066;-75
2022/08/04 04:21:59;;;;;;;0.10;0.10;;;20.30;91.60;;;;;;5070844;28;20017;-75
2022/08/04 04:24:36;;;;;;;1.05;0.50;;;20.30;91.60;;;;;;5072060;28;20029;-75
2022/08/04 04:27:17;;;;;;;0.10;0.10;;;20.30;91.80;;;;;;5070703;28;20361;-75
2022/08/04 04:30:22;;;;;;;0.15;0.15;;;20.40;91.90;;;;;;5070717;28;20025;-75
2022/08/04 04:33:20;;;;;;;0.90;0.63;;;20.40;92.00;;;;;;5047776;28;20038;-75
2022/08/04 04:35:57;;;;;;;0.30;0.30;;;20.40;91.90;;;;;;5059769;28;20044;-75
2022/08/04 04:38:42;;;;;;;0.10;0.10;;;20.40;92.30;;;;;;5071872;28;20504;-74
2022/08/04 04:41:28;;;;;;;0.10;0.10;;;20.60;92.40;;;;;;5053899;28;20368;-74
2022/08/04 04:43:54;;;;;;;0.20;0.20;;;20.60;92.60;;;;;;5040239;28;20036;-74
2022/08/04 04:46:34;;;;;;;0.30;0.30;;;20.60;92.20;;;;;;5070194;28;20024;-75
2022/08/04 04:49:13;;;;;;;0.43;0.43;;;20.70;92.40;;;;;;5053686;28;20021;-74
2022/08/04 04:52:05;;;;;;;0.17;0.17;;;20.70;92.60;;;;;;5070560;28;20021;-75
2022/08/04 04:54:44;;;;;;;0.08;0.08;;;20.90;92.20;;;;;;5053837;28;20025;-75
2022/08/04 04:57:20;;;;;;;0.10;0.10;;;21.10;92.20;;;;;;5073739;28;20037;-75
2022/08/04 05:00:03;;;;;;;0.10;0.10;;;21.30;91.80;;;;;;5074535;28;20024;-75
2022/08/04 05:03:05;;;;;;;0.10;0.10;;;21.30;91.60;;;;;;5074563;28;20033;-75
2022/08/04 05:05:52;;;;;;;0.10;0.10;;;21.50;91.30;;;;;;5075616;28;20100;-74
2022/08/04 05:09:09;;;;;;;0.03;0.03;;;21.50;91.40;;;;;;5075571;28;20021;-74
2022/08/04 05:11:50;;;;;;;0.00;0.00;;;21.30;92.40;;;;;;5013795;28;20033;-75
2022/08/04 05:14:24;;;;;;;0.00;0.00;;;21.40;92.60;;;;;;5075621;28;20017;-75
2022/08/04 05:17:24;;;;;;;0.10;0.10;;;21.50;92.80;;;;;;5086855;22;20094;-76
2022/08/04 05:20:00;;;;;;;0.10;0.10;;;21.60;92.90;;;;;;5071982;28;20040;-76
2022/08/04 05:22:38;;;;;;;0.05;0.05;;;21.70;92.80;;;;;;5075130;28;20020;-76
2022/08/04 05:25:08;;;;;;;0.05;0.05;;;21.70;93.30;;;;;;5073838;28;20087;-76
2022/08/04 05:27:40;;;;;;;0.00;0.00;;;21.80;92.90;;;;;;5074965;28;20020;-76
2022/08/04 05:30:07;;;;;;;0.17;0.17;;;21.90;93.20;;;;;;5073802;28;20020;-76
2022/08/04 05:32:59;;;;;;;0.00;0.00;;;21.90;94.70;;;;;;5074985;28;20086;-76
2022/08/04 05:35:43;;;;;;;0.00;0.00;;;21.90;94.10;;;;;;5073462;28;20024;-76
2022/08/04 05:38:13;;;;;;;0.08;0.08;;;22.10;94.40;;;;;;5056849;28;20047;-77
2022/08/04 05:40:39;;;;;;;0.00;0.00;;;22.30;94.10;;;;;;5073680;28;20024;-76
2022/08/04 05:43:05;;;;;;;0.25;0.25;;;22.50;93.30;;;;;;5056745;28;20024;-76
2022/08/04 05:45:34;;;;;;;0.10;0.10;;;22.60;93.10;;;;;;5073168;28;20040;-77
2022/08/04 05:48:05;;;;;;;0.10;0.10;;;22.50;93.60;;;;;;5063961;28;20020;-76
2022/08/04 05:50:32;;;;;;;0.10;0.10;;;22.50;93.70;;;;;;5073383;28;20043;-77
2022/08/04 05:52:59;;;;;;;0.00;0.00;;;22.60;93.90;;;;;;5073406;28;20028;-76
2022/08/04 05:55:27;;;;;;;0.43;0.43;;;22.70;93.50;;;;;;5042507;28;20060;-75
2022/08/04 05:57:55;;;;;;;0.10;0.10;;;22.70;93.70;;;;;;5053127;28;20029;-76
2022/08/04 06:00:23;;;;;;;0.10;0.10;;;22.90;93.10;;;;;;5053257;28;20033;-76
2022/08/04 06:02:51;;;;;;;0.10;0.10;;;22.90;93.30;;;;;;5058682;28;20032;-77
2022/08/04 06:05:17;;;;;;;0.10;0.10;;;23.00;93.40;;;;;;5072968;28;20028;-77
2022/08/04 06:07:47;;;;;;;0.00;0.00;;;23.20;92.90;;;;;;5055398;28;20559;-76
2022/08/04 06:10:13;;;;;;;0.00;0.00;;;23.30;92.50;;;;;;5074302;28;20017;-76
2022/08/04 06:12:48;;;;;;;0.00;0.00;;;23.40;92.60;;;;;;5072473;28;20116;-77
2022/08/04 06:15:18;;;;;;;0.00;0.00;;;23.60;92.20;;;;;;5064336;28;20023;-76
2022/08/04 06:17:48;;;;;;;0.20;0.20;;;23.70;92.00;;;;;;5056140;28;20530;-77
2022/08/04 06:20:15;;;;;;;0.00;0.00;;;23.70;92.40;;;;;;5076074;28;20052;-77
2022/08/04 06:22:45;;;;;;;1.17;1.17;;;23.70;93.10;;;;;;5073285;28;20047;-77
2022/08/04 06:25:15;;;;;;;0.00;0.00;;;23.80;93.00;;;;;;5076290;28;20363;-77
2022/08/04 06:27:42;;;;;;;0.00;0.00;;;23.90;93.00;;;;;;5066904;28;20029;-77
2022/08/04 06:30:13;;;;;;;0.22;0.22;;;24.00;92.70;;;;;;5065645;28;20095;-77
2022/08/04 06:32:47;;;;;;;0.00;0.00;;;24.10;92.80;;;;;;5074871;28;20020;-77
2022/08/04 06:35:17;;;;;;;0.10;0.10;;;24.20;93.40;;;;;;5069564;28;20021;-77
2022/08/04 06:37:45;;;;;;;0.00;0.00;;;24.20;92.80;;;;;;5054558;28;20025;-78
2022/08/04 06:40:13;;;;;;;0.00;0.00;;;24.40;92.70;;;;;;5055113;28;20025;-77
2022/08/04 06:42:41;;;;;;;0.08;0.08;;;24.60;92.40;;;;;;5055513;28;20123;-77
2022/08/04 06:45:10;;;;;;;0.00;0.00;;;24.70;91.30;;;;;;5059274;28;20055;-77
2022/08/04 06:47:41;;;;;;;0.00;0.00;;;24.90;91.00;;;;;;5073180;28;20479;-77
2022/08/04 06:50:11;;;;;;;0.00;0.00;;;25.00;90.60;;;;;;5075102;28;20021;-77
2022/08/04 06:52:38;;;;;;;0.73;0.47;;;25.10;89.00;;;;;;5056000;28;20032;-77
2022/08/04 06:55:05;;;;;;;0.05;0.05;;;25.10;89.00;;;;;;5074315;28;20380;-77
2022/08/04 06:57:34;;;;;;;0.00;0.00;;;25.20;90.00;;;;;;5065644;28;20052;-77
2022/08/04 07:00:00;;;;;;;0.00;0.00;;;25.40;89.50;;;;;;5069946;28;20021;-77
2022/08/04 07:02:30;;;;;;;0.03;0.03;;;25.60;89.00;;;;;;5073092;28;20024;-77
2022/08/04 07:04:56;;;;;;;0.00;0.00;;;25.80;87.40;;;;;;5064264;28;20033;-77
2022/08/04 07:07:25;;;;;;;0.00;0.00;;;25.90;87.00;;;;;;5066629;28;20020;-78
2022/08/04 07:09:52;;;;;;;0.00;0.00;;;26.10;83.00;;;;;;5077500;28;20020;-77
2022/08/04 07:12:20;;;;;;;0.00;0.00;;;26.20;83.50;;;;;;5076845;28;20020;-77
2022/08/04 07:14:48;;;;;;;0.00;0.00;;;26.40;83.00;;;;;;5076978;28;20024;-78
2022/08/04 07:17:16;;;;;;;0.00;0.00;;;26.60;79.50;;;;;;5076898;28;20495;-77
2022/08/04 07:19:43;;;;;;;0.00;0.00;;;26.80;80.50;;;;;;5076396;28;20021;-77
2022/08/04 07:22:10;;;;;;;0.00;0.00;;;26.80;79.20;;;;;;5076271;28;20119;-77
2022/08/04 07:24:37;;;;;;;0.00;0.00;;;26.90;79.90;;;;;;5058321;28;20495;-77
2022/08/04 07:27:05;;;;;;;0.20;0.20;;;27.00;75.30;;;;;;5074397;28;20065;-77
2022/08/04 07:29:33;;;;;;;0.00;0.00;;;27.00;70.50;;;;;;5057384;28;20040;-77
2022/08/04 07:32:00;;;;;;;0.00;0.00;;;27.10;70.60;;;;;;5074491;28;20033;-77
2022/08/04 07:34:27;;;;;;;0.00;0.00;;;27.20;71.10;;;;;;5075392;28;20021;-77
2022/08/04 07:36:55;;;;;;;0.00;0.00;;;27.20;71.70;;;;;;5066717;28;20119;-77
2022/08/04 07:39:23;;;;;;;0.00;0.00;;;27.40;71.10;;;;;;5056964;28;20548;-77
2022/08/04 07:41:50;;;;;;;0.00;0.00;;;27.60;70.10;;;;;;5056177;28;20074;-77
2022/08/04 07:44:16;;;;;;;0.00;0.00;;;27.60;69.60;;;;;;5055913;28;20323;-77
2022/08/04 07:46:44;;;;;;;0.05;0.05;;;27.70;70.60;;;;;;5058342;28;20029;-77
2022/08/04 07:49:11;;;;;;;0.00;0.00;;;27.80;68.90;;;;;;5058108;28;20025;-77
2022/08/04 07:51:38;;;;;;;0.00;0.00;;;28.00;67.80;;;;;;5055330;28;20139;-77
2022/08/04 07:54:06;;;;;;;0.00;0.00;;;28.10;69.60;;;;;;5053358;28;20021;-77
2022/08/04 07:56:34;;;;;;;0.00;0.00;;;28.40;68.00;;;;;;5053869;28;20028;-77
2022/08/04 07:59:01;;;;;;;0.00;0.00;;;28.50;68.30;;;;;;5055277;28;20412;-77
2022/08/04 08:01:27;;;;;;;0.00;0.00;;;28.70;67.60;;;;;;5055011;28;20025;-77
2022/08/04 08:03:55;;;;;;;0.00;0.00;;;28.80;68.00;;;;;;5054748;28;20104;-77
2022/08/04 08:06:22;;;;;;;0.10;0.10;;;28.90;67.00;;;;;;5057001;28;20012;-77
2022/08/04 08:08:48;;;;;;;0.00;0.00;;;28.80;65.60;;;;;;5056023;28;20017;-77
2022/08/04 08:11:15;;;;;;;0.08;0.08;;;28.90;65.60;;;;;;5063830;28;20464;-77
2022/08/04 08:13:42;;;;;;;0.00;0.00;;;29.10;64.50;;;;;;5062526;28;20021;-77
2022/08/04 08:16:08;;;;;;;0.10;0.10;;;29.10;63.30;;;;;;5075850;28;20028;-77
2022/08/04 08:18:34;;;;;;;0.00;0.00;;;29.20;63.40;;;;;;5057709;28;20021;-77
2022/08/04 08:21:01;;;;;;;0.00;0.00;;;29.40;63.50;;;;;;5074213;28;20017;-77
2022/08/04 08:23:30;;;;;;;0.00;0.00;;;29.60;62.90;;;;;;5073867;28;20029;-77
2022/08/04 08:25:58;;;;;;;0.00;0.00;;;29.60;62.50;;;;;;5074309;28;20028;-76
2022/08/04 08:28:24;;;;;;;0.00;0.00;;;29.90;61.80;;;;;;5070532;28;20033;-76
2022/08/04 08:30:50;;;;;;;0.10;0.10;;;30.00;60.80;;;;;;5070263;28;20537;-76
2022/08/04 08:33:17;;;;;;;0.00;0.00;;;30.10;60.10;;;;;;5072135;28;20013;-76
2022/08/04 08:36:16;;;;;;;0.00;0.00;;;30.30;59.80;;;;;;5072858;28;20403;-77
2022/08/04 08:38:59;;;;;;;0.00;0.00;;;30.40;60.20;;;;;;5051618;28;20021;-75
2022/08/04 08:41:53;;;;;;;0.00;0.00;;;30.50;59.70;;;;;;5051652;28;20029;-75
2022/08/04 08:44:57;;;;;;;0.00;0.00;;;30.70;59.30;;;;;;5050332;28;20385;-75
2022/08/04 08:47:34;;;;;;;0.00;0.00;;;30.80;59.40;;;;;;5050364;28;20061;-75
2022/08/04 08:50:23;;;;;;;0.00;0.00;;;30.90;59.00;;;;;;5051787;28;20075;-75
2022/08/04 08:52:51;;;;;;;0.00;0.00;;;31.20;58.90;;;;;;5051645;28;20021;-75
2022/08/04 08:55:36;;;;;;;0.00;0.00;;;31.40;58.00;;;;;;5050100;28;20385;-75
2022/08/04 08:58:20;;;;;;;0.40;0.10;;;31.40;57.90;;;;;;5033547;28;20108;-76
2022/08/04 09:01:04;;;;;;;0.47;0.28;;;31.70;57.80;;;;;;5050155;28;20033;-76
2022/08/04 09:04:08;;;;;;;0.00;0.00;;;31.80;57.40;;;;;;5051618;28;20025;-76
2022/08/04 09:06:55;;;;;;;0.00;0.00;;;31.70;55.60;;;;;;5055356;28;20233;-77
2022/08/04 09:09:24;;;;;;;0.00;0.00;;;31.70;56.50;;;;;;5053477;28;20028;-76
2022/08/04 09:12:12;;;;;;;0.00;0.00;;;32.10;54.80;;;;;;5071473;28;20016;-76
2022/08/04 09:15:01;;;;;;;0.22;0.22;;;32.00;54.90;;;;;;5070581;28;20028;-77
2022/08/04 09:18:19;;;;;;;2.38;1.05;;;32.20;54.70;;;;;;5069880;28;20033;-77
2022/08/04 09:20:54;;;;;;;0.20;0.20;;;32.30;54.20;;;;;;5055240;28;20488;-76
2022/08/04 09:23:27;;;;;;;0.00;0.00;;;32.60;53.60;;;;;;5071677;28;20105;-76
2022/08/04 09:26:18;;;;;;;0.38;0.25;;;33.00;53.40;;;;;;5071140;28;20035;-76
2022/08/04 09:28:55;;;;;;;0.00;0.00;;;33.00;51.80;;;;;;5071364;28;20028;-76
2022/08/04 09:31:32;;;;;;;0.20;0.20;;;33.10;52.10;;;;;;5053334;28;20480;-77
2022/08/04 09:34:12;;;;;;;0.22;0.22;;;33.40;52.20;;;;;;5071445;28;20100;-76
2022/08/04 09:37:03;;;;;;;0.00;0.00;;;33.50;50.20;;;;;;5071237;28;20127;-76
2022/08/04 09:40:01;;;;;;;0.10;0.10;;;33.50;50.60;;;;;;5071775;28;20103;-76
2022/08/04 09:42:43;;;;;;;0.00;0.00;;;33.40;50.50;;;;;;5053658;28;20020;-77
2022/08/04 09:45:21;;;;;;;0.00;0.00;;;33.80;51.00;;;;;;5074611;28;20021;-76
2022/08/04 09:48:05;;;;;;;0.00;0.00;;;34.10;50.10;;;;;;5056821;28;20060;-74
2022/08/04 09:50:37;;;;;;;0.03;0.03;;;33.80;50.30;;;;;;5073590;28;20103;-77
2022/08/04 09:53:21;;;;;;;0.00;0.00;;;33.80;49.70;;;;;;5074280;28;20024;-76
2022/08/04 09:56:05;;;;;;;0.00;0.00;;;33.80;49.80;;;;;;5064229;28;20021;-77
2022/08/04 09:58:49;;;;;;;0.00;0.00;;;34.10;49.80;;;;;;5064992;28;20151;-75
2022/08/04 10:01:23;;;;;;;0.00;0.00;;;34.50;49.30;;;;;;5071901;28;20025;-73
2022/08/04 10:03:51;;;;;;;0.00;0.00;;;34.90;48.30;;;;;;5069475;28;20058;-74
2022/08/04 10:06:46;;;;;;;0.82;0.82;;;34.60;47.30;;;;;;5068259;28;20074;-75
2022/08/04 10:09:47;;;;;;;0.65;0.32;;;34.70;47.90;;;;;;5067521;28;20044;-74
2022/08/04 10:12:39;;;;;;;;;;;34.80;47.40;;;;;;5008200;28;20022;-77
2022/08/04 10:15:18;;;;;;;0.10;0.10;;;35.00;46.40;;;;;;5047911;28;19905;-76
2022/08/04 10:17:43;;;;;;;0.10;0.10;;;35.20;44.80;;;;;;5048906;28;20567;-76
2022/08/04 10:20:09;;;;;;;0.00;0.00;;;35.60;44.20;;;;;;5072635;28;20120;-73
2022/08/04 10:23:04;;;;;;;0.10;0.10;;;35.30;42.70;;;;;;5073960;28;20051;-71
2022/08/04 10:25:43;;;;;;;1.05;0.98;;;34.80;43.10;;;;;;5072636;28;20039;-72
2022/08/04 10:28:14;;;;;;;0.00;0.00;;;34.80;44.10;;;;;;5072828;28;20021;-71
2022/08/04 10:30:45;;;;;;;;;;;34.60;44.70;;;;;;5055228;28;20115;-72
2022/08/04 10:33:24;;;;;;;0.00;0.00;;;34.80;45.50;;;;;;5053979;28;19991;-70
2022/08/04 10:36:11;;;;;;;0.00;0.00;;;34.90;45.30;;;;;;5073651;28;20082;-70
2022/08/04 10:39:19;;;;;;;0.10;0.10;;;35.30;43.20;;;;;;5073614;28;20032;-73
2022/08/04 10:41:59;;;;;;;0.00;0.00;;;35.30;42.40;;;;;;4998682;28;20219;-75
2022/08/04 10:44:32;;;;;;;3.97;3.10;;;35.30;43.70;;;;;;5068838;28;20045;-75
2022/08/04 10:47:03;;;;;;;0.20;0.13;;;35.50;42.40;;;;;;5072050;28;20029;-75
2022/08/04 10:49:29;;;;;;;4.22;0.45;;;35.80;41.40;;;;;;5072203;28;20078;-76
2022/08/04 10:51:57;;;;;;;0.10;0.10;;;35.40;42.10;;;;;;5073614;28;20029;-75
2022/08/04 10:54:29;;;;;;;0.00;0.00;;;35.10;42.40;;;;;;5071907;28;20031;-76
2022/08/04 10:57:03;;;;;;;0.10;0.10;;;35.30;43.00;;;;;;5071803;28;20056;-76
2022/08/04 10:59:44;;;;;;;0.00;0.00;;;35.90;42.10;;;;;;5073565;28;20021;-77
2022/08/04 11:02:22;;;;;;;0.60;0.52;;;36.30;41.10;;;;;;5072989;28;20033;-77
2022/08/04 11:04:58;;;;;;;1.45;0.85;;;36.30;40.50;;;;;;5036850;28;20108;-77
2022/08/04 11:07:29;;;;;;;0.90;0.65;;;35.90;41.10;;;;;;5054019;28;20094;-77
2022/08/04 11:09:55;;;;;;;1.80;0.80;;;35.90;41.60;;;;;;5074121;28;20028;-77
2022/08/04 11:12:25;;;;;;;0.45;0.40;;;35.40;41.90;;;;;;5072896;28;20040;-77
2022/08/04 11:14:58;;;;;;;0.03;0.03;;;35.30;42.70;;;;;;5074483;28;20025;-76
2022/08/04 11:17:36;;;;;;;0.28;0.28;;;35.50;43.00;;;;;;5075832;22;20071;-75
2022/08/04 11:20:21;;;;;;;0.40;0.40;;;36.00;42.50;;;;;;5035469;28;20036;-76
2022/08/04 11:22:57;;;;;;;0.52;0.52;;;36.00;42.10;;;;;;5037011;28;20021;-77
2022/08/04 11:25:30;;;;;;;0.00;0.00;;;36.60;41.70;;;;;;5053821;28;20054;-74
2022/08/04 11:28:22;;;;;;;0.00;0.00;;;37.10;41.30;;;;;;5053842;28;20101;-76
2022/08/04 11:31:05;;;;;;;0.20;0.10;;;37.60;40.00;;;;;;5036743;28;20240;-75
2022/08/04 11:33:45;;;;;;;0.10;0.10;;;37.50;40.00;;;;;;5035329;28;20518;-75
2022/08/04 11:36:53;;;;;;;0.25;0.13;;;37.60;39.80;;;;;;5052758;28;20078;-76
2022/08/04 11:39:46;;;;;;;2.17;0.20;;;37.60;39.20;;;;;;5038298;28;20043;-76
2022/08/04 11:42:26;;;;;;;0.10;0.10;;;37.80;38.80;;;;;;5052755;28;20021;-75
2022/08/04 11:45:05;;;;;;;0.00;0.00;;;37.00;40.60;;;;;;5052631;28;20020;-76
2022/08/04 11:47:38;;;;;;;0.10;0.10;;;37.20;40.20;;;;;;5034399;28;20143;-76
2022/08/04 11:50:09;;;;;;;0.00;0.00;;;37.10;39.80;;;;;;5052490;28;20032;-76
2022/08/04 11:52:39;;;;;;;0.00;0.00;;;37.30;40.40;;;;;;5052668;28;20025;-75
2022/08/04 11:55:10;;;;;;;0.20;0.20;;;37.20;39.70;;;;;;5018790;28;20025;-76
2022/08/04 11:57:37;;;;;;;0.60;0.60;;;37.40;39.50;;;;;;5034593;28;20040;-76
2022/08/04 12:00:09;;;;;;;0.00;0.00;;;37.60;39.00;;;;;;5052286;28;20035;-76
2022/08/04 12:03:14;;;;;;;0.00;0.00;;;37.60;39.00;;;;;;5052298;28;20507;-76
2022/08/04 12:05:53;;;;;;;0.00;0.00;;;37.60;39.90;;;;;;5033795;28;20029;-76
2022/08/04 12:08:52;;;;;;;0.15;0.15;;;37.30;39.30;;;;;;5034267;28;20025;-76
2022/08/04 12:11:18;;;;;;;0.00;0.00;;;37.40;38.60;;;;;;5052235;28;20024;-76
2022/08/04 12:14:00;;;;;;;0.00;0.00;;;37.70;38.40;;;;;;5034303;28;20032;-76
2022/08/04 12:16:41;;;;;;;0.00;0.00;;;37.50;38.30;;;;;;5052044;28;20036;-76
2022/08/04 12:19:20;;;;;;;0.25;0.20;;;37.30;38.40;;;;;;5052271;28;20013;-76
2022/08/04 12:21:53;;;;;;;0.10;0.10;;;37.10;38.60;;;;;;5052059;28;20538;-76
2022/08/04 12:24:22;;;;;;;0.40;0.10;;;36.90;38.50;;;;;;5034083;28;20029;-76
2022/08/04 12:26:54;;;;;;;0.25;0.25;;;36.50;39.60;;;;;;5033897;28;20032;-74
2022/08/04 12:29:22;;;;;;;0.08;0.08;;;36.40;39.30;;;;;;5051820;28;20021;-76
2022/08/04 12:31:59;;;;;;;0.47;0.47;;;36.00;39.40;;;;;;5067841;22;20063;-75
2022/08/04 12:34:40;;;;;;;0.00;0.00;;;36.00;40.00;;;;;;5092613;28;20027;-76
2022/08/04 12:37:23;;;;;;;0.10;0.10;;;36.10;39.40;;;;;;5094581;28;20069;-77
2022/08/04 12:39:52;;;;;;;0.28;0.25;;;36.10;40.00;;;;;;5091847;28;20040;-77
2022/08/04 12:42:29;;;;;;;0.00;0.00;;;36.10;39.30;;;;;;5090879;28;20081;-77
2022/08/04 12:44:58;;;;;;;2.55;1.77;;;35.90;39.60;;;;;;5092026;28;20028;-77
2022/08/04 12:47:26;;;;;;;0.40;0.40;;;35.60;39.50;;;;;;5090731;28;20036;-77
2022/08/04 12:49:53;;;;;;;0.77;0.70;;;35.60;39.40;;;;;;5092195;28;20406;-76
2022/08/04 12:52:20;;;;;;;1.88;1.27;;;34.90;40.00;;;;;;5073685;28;20028;-77
2022/08/04 12:54:52;;;;;;;0.82;0.50;;;34.80;40.40;;;;;;5090553;28;20032;-77
2022/08/04 12:57:20;;;;;;;0.00;0.00;;;34.40;41.20;;;;;;5090471;28;20114;-77
2022/08/04 12:59:46;;;;;;;0.22;0.22;;;34.30;41.90;;;;;;5090667;28;20035;-77
2022/08/04 13:02:22;;;;;;;0.00;0.00;;;34.50;41.80;;;;;;5090444;28;20020;-77
2022/08/04 13:04:50;;;;;;;0.00;0.00;;;34.80;41.40;;;;;;5092007;28;20471;-77
2022/08/04 13:07:21;;;;;;;0.00;0.00;;;35.10;40.60;;;;;;5091630;28;20407;-77
2022/08/04 13:09:47;;;;;;;0.00;0.00;;;35.50;40.90;;;;;;5071815;28;20530;-77
2022/08/04 13:12:15;;;;;;;0.00;0.00;;;35.20;40.60;;;;;;5071705;28;20124;-76
2022/08/04 13:14:44;;;;;;;0.15;0.15;;;34.80;41.20;;;;;;5070417;28;20384;-76
2022/08/04 13:17:11;;;;;;;0.25;0.25;;;35.00;41.50;;;;;;5072781;28;20028;-76
2022/08/04 13:19:38;;;;;;;0.43;0.43;;;35.20;41.10;;;;;;5075297;28;20074;-76
2022/08/04 13:22:04;;;;;;;0.17;0.10;;;35.00;41.60;;;;;;5075837;28;20028;-77
2022/08/04 13:24:32;;;;;;;0.55;0.45;;;34.80;41.60;;;;;;5090841;28;20086;-77
2022/08/04 13:27:04;;;;;;;0.00;0.00;;;35.00;41.80;;;;;;5075320;28;20024;-77
2022/08/04 13:29:36;;;;;;;0.22;0.22;;;34.90;42.00;;;;;;5075888;28;20096;-77
2022/08/04 13:32:04;;;;;;;0.00;0.00;;;34.90;42.20;;;;;;5075442;28;20028;-77
2022/08/04 13:34:32;;;;;;;0.00;0.00;;;35.00;42.10;;;;;;5075324;28;20422;-78
2022/08/04 13:37:00;;;;;;;0.20;0.20;;;35.20;42.10;;;;;;5073281;28;20052;-76
2022/08/04 13:39:27;;;;;;;0.10;0.10;;;35.40;42.80;;;;;;5074867;28;20028;-77